sensor_id;sensor_type;location;lat;lon;timestamp;P1;durP1;ratioP1;P2;durP2;ratioP2
42140;SDS011;27809;51.864;5.646;2023-09-18T00:01:20;27.15;;;15.52;;
42140;SDS011;27809;51.864;5.646;2023-09-18T00:03:46;25.17;;;16.13;;
42140;SDS011;27809;51.864;5.646;2023-09-18T00:06:11;24.92;;;15.55;;
42140;SDS011;27809;51.864;5.646;2023-09-18T00:08:38;26.10;;;15.45;;
42140;SDS011;27809;51.864;5.646;2023-09-18T00:11:04;25.15;;;15.93;;
42140;SDS011;27809;51.864;5.646;2023-09-18T00:13:30;21.75;;;15.02;;
42140;SDS011;27809;51.864;5.646;2023-09-18T00:15:55;27.35;;;16.48;;
42140;SDS011;27809;51.864;5.646;2023-09-18T00:18:21;22.95;;;16.40;;
42140;SDS011;27809;51.864;5.646;2023-09-18T00:20:47;24.08;;;15.55;;
42140;SDS011;27809;51.864;5.646;2023-09-18T00:23:13;22.92;;;15.10;;
42140;SDS011;27809;51.864;5.646;2023-09-18T00:25:40;27.88;;;16.05;;
42140;SDS011;27809;51.864;5.646;2023-09-18T00:28:07;25.80;;;15.25;;
42140;SDS011;27809;51.864;5.646;2023-09-18T00:30:33;24.80;;;15.48;;
42140;SDS011;27809;51.864;5.646;2023-09-18T00:32:59;26.40;;;15.52;;
42140;SDS011;27809;51.864;5.646;2023-09-18T00:35:24;20.40;;;13.27;;
42140;SDS011;27809;51.864;5.646;2023-09-18T00:37:50;29.38;;;16.27;;
42140;SDS011;27809;51.864;5.646;2023-09-18T00:40:16;27.77;;;16.40;;
42140;SDS011;27809;51.864;5.646;2023-09-18T00:42:41;30.85;;;16.77;;
42140;SDS011;27809;51.864;5.646;2023-09-18T00:45:07;26.98;;;15.82;;
42140;SDS011;27809;51.864;5.646;2023-09-18T00:47:34;32.55;;;16.50;;
42140;SDS011;27809;51.864;5.646;2023-09-18T00:50:01;24.85;;;15.13;;
42140;SDS011;27809;51.864;5.646;2023-09-18T00:52:28;24.85;;;15.80;;
42140;SDS011;27809;51.864;5.646;2023-09-18T00:54:53;25.27;;;14.82;;
42140;SDS011;27809;51.864;5.646;2023-09-18T00:57:20;20.33;;;15.20;;
42140;SDS011;27809;51.864;5.646;2023-09-18T00:59:46;23.30;;;14.95;;
42140;SDS011;27809;51.864;5.646;2023-09-18T01:02:12;23.38;;;16.33;;
42140;SDS011;27809;51.864;5.646;2023-09-18T01:04:38;24.60;;;15.13;;
42140;SDS011;27809;51.864;5.646;2023-09-18T01:07:09;26.65;;;15.23;;
42140;SDS011;27809;51.864;5.646;2023-09-18T01:09:35;24.98;;;15.70;;
42140;SDS011;27809;51.864;5.646;2023-09-18T01:17:22;30.42;;;15.80;;
42140;SDS011;27809;51.864;5.646;2023-09-18T01:19:49;27.92;;;16.08;;
42140;SDS011;27809;51.864;5.646;2023-09-18T01:22:15;21.90;;;14.55;;
42140;SDS011;27809;51.864;5.646;2023-09-18T01:24:42;21.08;;;13.10;;
42140;SDS011;27809;51.864;5.646;2023-09-18T01:27:11;21.88;;;15.75;;
42140;SDS011;27809;51.864;5.646;2023-09-18T01:29:44;22.17;;;14.55;;
42140;SDS011;27809;51.864;5.646;2023-09-18T01:32:10;28.30;;;14.65;;
42140;SDS011;27809;51.864;5.646;2023-09-18T01:34:46;18.80;;;14.38;;
42140;SDS011;27809;51.864;5.646;2023-09-18T01:37:13;24.13;;;14.07;;
42140;SDS011;27809;51.864;5.646;2023-09-18T01:39:40;23.08;;;14.45;;
42140;SDS011;27809;51.864;5.646;2023-09-18T01:42:07;22.02;;;14.95;;
42140;SDS011;27809;51.864;5.646;2023-09-18T01:44:34;22.25;;;12.68;;
42140;SDS011;27809;51.864;5.646;2023-09-18T01:47:02;20.17;;;13.10;;
42140;SDS011;27809;51.864;5.646;2023-09-18T01:49:29;20.33;;;12.52;;
42140;SDS011;27809;51.864;5.646;2023-09-18T01:51:57;21.85;;;13.15;;
42140;SDS011;27809;51.864;5.646;2023-09-18T01:54:22;18.42;;;11.10;;
42140;SDS011;27809;51.864;5.646;2023-09-18T01:56:48;15.27;;;11.48;;
42140;SDS011;27809;51.864;5.646;2023-09-18T01:59:14;16.40;;;10.70;;
42140;SDS011;27809;51.864;5.646;2023-09-18T02:01:39;16.73;;;9.15;;
42140;SDS011;27809;51.864;5.646;2023-09-18T02:04:05;17.98;;;10.52;;
42140;SDS011;27809;51.864;5.646;2023-09-18T02:06:30;17.40;;;9.35;;
42140;SDS011;27809;51.864;5.646;2023-09-18T02:08:56;13.55;;;8.95;;
42140;SDS011;27809;51.864;5.646;2023-09-18T02:11:21;13.52;;;7.22;;
42140;SDS011;27809;51.864;5.646;2023-09-18T02:13:47;12.55;;;6.60;;
42140;SDS011;27809;51.864;5.646;2023-09-18T02:16:12;12.30;;;6.55;;
42140;SDS011;27809;51.864;5.646;2023-09-18T02:18:38;15.13;;;6.25;;
42140;SDS011;27809;51.864;5.646;2023-09-18T02:21:03;9.10;;;5.95;;
42140;SDS011;27809;51.864;5.646;2023-09-18T02:23:29;9.63;;;5.97;;
42140;SDS011;27809;51.864;5.646;2023-09-18T02:25:55;12.15;;;6.63;;
42140;SDS011;27809;51.864;5.646;2023-09-18T02:28:23;11.88;;;6.63;;
42140;SDS011;27809;51.864;5.646;2023-09-18T02:30:49;10.85;;;6.47;;
42140;SDS011;27809;51.864;5.646;2023-09-18T02:33:15;9.52;;;6.55;;
42140;SDS011;27809;51.864;5.646;2023-09-18T02:35:41;12.38;;;6.32;;
42140;SDS011;27809;51.864;5.646;2023-09-18T02:38:08;13.23;;;6.82;;
42140;SDS011;27809;51.864;5.646;2023-09-18T02:40:33;15.63;;;7.15;;
42140;SDS011;27809;51.864;5.646;2023-09-18T02:42:59;9.68;;;5.88;;
42140;SDS011;27809;51.864;5.646;2023-09-18T02:45:24;11.45;;;5.90;;
42140;SDS011;27809;51.864;5.646;2023-09-18T02:47:50;13.05;;;6.80;;
42140;SDS011;27809;51.864;5.646;2023-09-18T02:50:15;12.60;;;6.88;;
42140;SDS011;27809;51.864;5.646;2023-09-18T02:52:41;12.85;;;6.95;;
42140;SDS011;27809;51.864;5.646;2023-09-18T02:55:07;11.60;;;6.15;;
42140;SDS011;27809;51.864;5.646;2023-09-18T02:57:34;10.98;;;7.18;;
42140;SDS011;27809;51.864;5.646;2023-09-18T03:00:00;9.77;;;6.75;;
42140;SDS011;27809;51.864;5.646;2023-09-18T03:02:25;12.25;;;6.13;;
42140;SDS011;27809;51.864;5.646;2023-09-18T03:04:51;15.27;;;7.25;;
42140;SDS011;27809;51.864;5.646;2023-09-18T03:07:16;16.02;;;6.45;;
42140;SDS011;27809;51.864;5.646;2023-09-18T03:09:42;14.27;;;7.40;;
42140;SDS011;27809;51.864;5.646;2023-09-18T03:12:08;12.95;;;7.05;;
42140;SDS011;27809;51.864;5.646;2023-09-18T03:14:34;14.93;;;8.73;;
42140;SDS011;27809;51.864;5.646;2023-09-18T03:16:59;11.48;;;7.57;;
42140;SDS011;27809;51.864;5.646;2023-09-18T03:19:25;9.82;;;6.75;;
42140;SDS011;27809;51.864;5.646;2023-09-18T03:21:51;11.75;;;6.88;;
42140;SDS011;27809;51.864;5.646;2023-09-18T03:24:17;12.02;;;6.15;;
42140;SDS011;27809;51.864;5.646;2023-09-18T03:26:43;15.15;;;6.95;;
42140;SDS011;27809;51.864;5.646;2023-09-18T03:29:09;10.68;;;5.32;;
42140;SDS011;27809;51.864;5.646;2023-09-18T03:31:34;12.38;;;7.32;;
42140;SDS011;27809;51.864;5.646;2023-09-18T03:34:00;15.10;;;7.20;;
42140;SDS011;27809;51.864;5.646;2023-09-18T03:36:26;19.60;;;8.57;;
42140;SDS011;27809;51.864;5.646;2023-09-18T03:38:51;12.57;;;7.47;;
42140;SDS011;27809;51.864;5.646;2023-09-18T03:41:17;16.15;;;8.18;;
42140;SDS011;27809;51.864;5.646;2023-09-18T03:43:42;11.45;;;7.72;;
42140;SDS011;27809;51.864;5.646;2023-09-18T03:46:08;18.42;;;9.18;;
42140;SDS011;27809;51.864;5.646;2023-09-18T03:48:33;10.38;;;7.43;;
42140;SDS011;27809;51.864;5.646;2023-09-18T03:51:03;16.30;;;8.95;;
42140;SDS011;27809;51.864;5.646;2023-09-18T03:53:30;12.35;;;7.55;;
42140;SDS011;27809;51.864;5.646;2023-09-18T03:55:56;14.85;;;7.13;;
42140;SDS011;27809;51.864;5.646;2023-09-18T03:58:22;13.35;;;8.00;;
42140;SDS011;27809;51.864;5.646;2023-09-18T04:00:47;13.40;;;7.68;;
42140;SDS011;27809;51.864;5.646;2023-09-18T04:03:14;11.32;;;6.75;;
42140;SDS011;27809;51.864;5.646;2023-09-18T04:05:39;19.85;;;8.88;;
42140;SDS011;27809;51.864;5.646;2023-09-18T04:08:05;17.08;;;9.45;;
42140;SDS011;27809;51.864;5.646;2023-09-18T04:10:30;15.75;;;9.45;;
42140;SDS011;27809;51.864;5.646;2023-09-18T04:12:56;15.30;;;9.32;;
42140;SDS011;27809;51.864;5.646;2023-09-18T04:15:22;14.68;;;8.15;;
42140;SDS011;27809;51.864;5.646;2023-09-18T04:17:48;14.77;;;8.52;;
42140;SDS011;27809;51.864;5.646;2023-09-18T04:20:13;11.95;;;7.47;;
42140;SDS011;27809;51.864;5.646;2023-09-18T04:23:16;20.48;;;10.00;;
42140;SDS011;27809;51.864;5.646;2023-09-18T04:25:44;13.18;;;8.05;;
42140;SDS011;27809;51.864;5.646;2023-09-18T04:28:13;14.02;;;8.35;;
42140;SDS011;27809;51.864;5.646;2023-09-18T04:30:40;17.50;;;10.10;;
42140;SDS011;27809;51.864;5.646;2023-09-18T04:33:05;13.57;;;7.65;;
42140;SDS011;27809;51.864;5.646;2023-09-18T04:35:31;15.45;;;8.30;;
42140;SDS011;27809;51.864;5.646;2023-09-18T04:37:58;14.18;;;7.78;;
42140;SDS011;27809;51.864;5.646;2023-09-18T04:40:24;15.63;;;5.80;;
42140;SDS011;27809;51.864;5.646;2023-09-18T04:42:51;27.83;;;9.55;;
42140;SDS011;27809;51.864;5.646;2023-09-18T04:45:17;13.23;;;6.82;;
42140;SDS011;27809;51.864;5.646;2023-09-18T04:47:43;17.23;;;7.07;;
42140;SDS011;27809;51.864;5.646;2023-09-18T04:50:08;16.52;;;6.97;;
42140;SDS011;27809;51.864;5.646;2023-09-18T04:52:35;15.43;;;7.45;;
42140;SDS011;27809;51.864;5.646;2023-09-18T04:55:00;16.42;;;7.43;;
42140;SDS011;27809;51.864;5.646;2023-09-18T04:57:26;14.45;;;6.25;;
42140;SDS011;27809;51.864;5.646;2023-09-18T04:59:52;16.67;;;7.13;;
42140;SDS011;27809;51.864;5.646;2023-09-18T05:02:17;11.95;;;5.95;;
42140;SDS011;27809;51.864;5.646;2023-09-18T05:04:43;17.85;;;7.28;;
42140;SDS011;27809;51.864;5.646;2023-09-18T05:07:08;15.02;;;7.07;;
42140;SDS011;27809;51.864;5.646;2023-09-18T05:09:34;14.70;;;6.00;;
42140;SDS011;27809;51.864;5.646;2023-09-18T05:12:00;15.38;;;6.90;;
42140;SDS011;27809;51.864;5.646;2023-09-18T05:14:25;16.75;;;7.13;;
42140;SDS011;27809;51.864;5.646;2023-09-18T05:16:51;15.75;;;6.65;;
42140;SDS011;27809;51.864;5.646;2023-09-18T05:19:17;15.85;;;6.85;;
42140;SDS011;27809;51.864;5.646;2023-09-18T05:21:42;17.88;;;6.88;;
42140;SDS011;27809;51.864;5.646;2023-09-18T05:24:08;12.77;;;6.30;;
42140;SDS011;27809;51.864;5.646;2023-09-18T05:26:34;14.90;;;7.80;;
42140;SDS011;27809;51.864;5.646;2023-09-18T05:28:59;12.27;;;6.50;;
42140;SDS011;27809;51.864;5.646;2023-09-18T05:31:25;15.32;;;6.30;;
42140;SDS011;27809;51.864;5.646;2023-09-18T05:33:50;11.52;;;5.95;;
42140;SDS011;27809;51.864;5.646;2023-09-18T05:36:16;14.20;;;7.88;;
42140;SDS011;27809;51.864;5.646;2023-09-18T05:38:42;13.02;;;6.45;;
42140;SDS011;27809;51.864;5.646;2023-09-18T05:41:08;15.70;;;7.47;;
42140;SDS011;27809;51.864;5.646;2023-09-18T05:43:34;20.75;;;7.95;;
42140;SDS011;27809;51.864;5.646;2023-09-18T05:46:01;19.63;;;9.35;;
42140;SDS011;27809;51.864;5.646;2023-09-18T05:48:26;18.13;;;7.53;;
42140;SDS011;27809;51.864;5.646;2023-09-18T05:50:52;12.35;;;7.13;;
42140;SDS011;27809;51.864;5.646;2023-09-18T05:53:19;13.75;;;6.35;;
42140;SDS011;27809;51.864;5.646;2023-09-18T05:55:45;14.90;;;7.43;;
42140;SDS011;27809;51.864;5.646;2023-09-18T05:58:10;14.98;;;6.97;;
42140;SDS011;27809;51.864;5.646;2023-09-18T06:00:36;13.95;;;6.60;;
42140;SDS011;27809;51.864;5.646;2023-09-18T06:03:02;12.52;;;6.07;;
42140;SDS011;27809;51.864;5.646;2023-09-18T06:05:28;15.23;;;6.97;;
42140;SDS011;27809;51.864;5.646;2023-09-18T06:07:56;12.88;;;7.10;;
42140;SDS011;27809;51.864;5.646;2023-09-18T06:10:21;12.13;;;6.32;;
42140;SDS011;27809;51.864;5.646;2023-09-18T06:12:47;15.50;;;6.40;;
42140;SDS011;27809;51.864;5.646;2023-09-18T06:15:12;15.20;;;6.57;;
42140;SDS011;27809;51.864;5.646;2023-09-18T06:17:38;9.18;;;5.50;;
42140;SDS011;27809;51.864;5.646;2023-09-18T06:20:05;10.68;;;6.82;;
42140;SDS011;27809;51.864;5.646;2023-09-18T06:22:35;12.32;;;6.15;;
42140;SDS011;27809;51.864;5.646;2023-09-18T06:25:09;11.30;;;6.97;;
42140;SDS011;27809;51.864;5.646;2023-09-18T06:27:39;8.63;;;5.75;;
42140;SDS011;27809;51.864;5.646;2023-09-18T06:30:05;5.85;;;2.55;;
42140;SDS011;27809;51.864;5.646;2023-09-18T06:32:31;7.97;;;2.30;;
42140;SDS011;27809;51.864;5.646;2023-09-18T06:34:57;5.30;;;2.25;;
